Latest Coastal Weather Observations for Rhyll

IDV60701

Issued at 12:11 am EDT Saturday 28 February 2015 (issued every 10 minutes, with the page automatically refreshed every 10 minutes)

About coastal observations | Map of coastal stations | Coastal observations for VIC | Marine services | Other Formats
Station Details ID: 086373 Name: RHYLL Lat: -38.46 Lon: 145.31 Height: 13.4 m
Data from the previous 72 hours. | See also: Recent months at Rhyll
Date/Time
EDT
Temp

°C
Wind Pressure Rain
since 9am
mm
Weather Cloud Vis
km
Sea
Height
m
Swell
Dir
 
Speed
knots
Gust
knots
hPa Trend Height
m
Period
s
Dir
28/12:00am 17.1 ESE 8 11 1010.8 - 0.0 - - - - - - -
 
Date/Time
EDT
Temp

°C
Wind Pressure Rain
since 9am
mm
Weather Cloud Vis
km
Sea
Height
m
Swell
Dir
 
Speed
knots
Gust
knots
hPa Trend Height
m
Period
s
Dir
27/11:30pm 17.2 ESE 8 12 1011.0 - 0.0 - - - - - - -
27/11:00pm 17.4 SE 6 10 1011.1 - 0.0 - - - - - - -
27/10:30pm 17.5 SE 5 9 1011.4 - 0.0 - - - - - - -
27/10:00pm 17.4 SSE 6 9 1011.2 - 0.0 - - - - - - -
27/09:30pm 17.4 SSE 6 8 1010.8 - 0.0 - - - - - - -
27/09:00pm 17.6 SSE 6 8 1010.7 - 0.0 - - - - - - -
27/08:30pm 17.6 SE 5 8 1010.3 - 0.0 - - - - - - -
27/08:00pm 17.5 SSE 7 9 1010.2 - 0.0 - - - - - - -
27/07:30pm 17.7 SSE 6 9 1010.0 - 0.0 - - - - - - -
27/07:00pm 17.9 SSE 8 11 1009.4 - 0.0 - - - - - - -
27/06:30pm 18.4 SSE 6 10 1009.7 - 0.0 - - - - - - -
27/06:00pm 18.4 SSE 7 11 1009.7 - 0.0 - - - - - - -
27/05:30pm 19.2 SSE 8 11 1009.8 - 0.0 - - - - - - -
27/05:00pm 19.5 S 7 10 1010.2 - 0.0 - - - - - - -
27/04:30pm 20.4 S 7 10 1010.3 - 0.0 - - - - - - -
27/04:00pm 20.5 SSE 6 10 1010.3 - 0.0 - - - - - - -
27/03:30pm 20.9 S 6 9 1010.4 - 0.0 - - - - - - -
27/03:00pm 22.2 S 5 8 1010.3 - 0.0 - - - - - - -
27/02:30pm 22.7 S 5 8 1010.5 - 0.0 - - - - - - -
27/02:00pm 22.9 S 5 8 1010.8 - 0.0 - - - - - - -
27/01:30pm 23.3 S 5 8 1010.8 - 0.0 - - - - - - -
27/01:00pm 21.9 S 5 8 1010.9 - 0.0 - - - - - - -
27/12:30pm 22.2 SE 5 9 1011.2 - 0.0 - - - - - - -
27/12:00pm 22.0 SE 4 6 1011.1 - 0.0 - - - - - - -
27/11:30am 20.3 SE 5 8 1011.4 - 0.0 - - - - - - -
27/11:00am 19.6 SSE 5 7 1011.5 - 0.0 - - - - - - -
27/10:30am 18.7 SW 5 10 1011.5 - 0.0 - - - - - - -
27/10:00am 19.0 N 4 7 1011.1 - 0.0 - - - - - - -
27/09:30am 19.1 NNW 6 7 1011.1 - 0.0 - - - - - - -
27/09:00am 17.9 N 5 7 1010.8 - 0.0 - - - - - - -
27/08:30am 17.5 N 5 7 1010.8 - 0.0 - - - - - - -
27/08:00am 17.2 NNW 2 4 1010.7 - 0.0 - - - - - - -
27/07:30am 16.9 NNW 2 3 1010.4 - 0.0 - - - - - - -
27/07:00am 16.2 NW 2 3 1010.1 - 0.0 - - - - - - -
27/06:30am 16.0 WNW 2 3 1009.9 - 0.0 - - - - - - -
27/06:00am 16.1 W 2 3 1009.9 - 0.0 - - - - - - -
27/05:30am 16.3 W 2 3 1009.8 - 0.0 - - - - - - -
27/05:00am 16.4 W 3 4 1009.9 - 0.0 - - - - - - -
27/04:30am 16.3 WNW 3 4 1009.9 - 0.0 - - - - - - -
27/04:00am 16.3 W 4 6 1010.1 - 0.0 - - - - - - -
27/03:30am 16.7 W 4 6 1010.4 - 0.0 - - - - - - -
27/03:00am 16.6 CALM 0 0 1010.4 - 0.0 - - - - - - -
27/02:30am 17.6 WSW 1 2 1010.4 - 0.0 - - - - - - -
27/02:00am 17.8 CALM 0 0 1010.6 - 0.0 - - - - - - -
27/01:30am 17.9 WSW 2 2 1011.0 - 0.0 - - - - - - -
27/01:00am 17.8 WSW 2 3 1011.4 - 0.0 - - - - - - -
27/12:30am 17.6 W 2 2 1011.4 - 0.0 - - - - - - -
27/12:00am 17.6 WSW 2 3 1011.5 - 0.0 - - - - - - -
 
Date/Time
EDT
Temp

°C
Wind Pressure Rain
since 9am
mm
Weather Cloud Vis
km
Sea
Height
m
Swell
Dir
 
Speed
knots
Gust
knots
hPa Trend Height
m
Period
s
Dir
26/11:30pm 17.4 SW 2 3 1011.5 - 0.0 - - - - - - -
26/11:00pm 17.6 SW 2 3 1011.6 - 0.0 - - - - - - -
26/10:30pm 17.6 SW 3 4 1011.8 - 0.0 - - - - - - -
26/10:00pm 17.5 SW 3 5 1011.9 - 0.0 - - - - - - -
26/09:30pm 17.8 SSW 4 7 1011.7 - 0.0 - - - - - - -
26/09:00pm 17.7 SSW 3 6 1011.3 - 0.0 - - - - - - -
26/08:30pm 17.9 SSW 5 8 1010.9 - 0.0 - - - - - - -
26/08:00pm 18.2 S 5 8 1010.5 - 0.0 - - - - - - -
26/07:30pm 18.9 SSW 4 9 1010.3 - 0.0 - - - - - - -
26/07:00pm 19.0 SSW 5 9 1010.0 - 0.0 - - - - - - -
26/06:30pm 20.1 SSW 6 10 1009.7 - 0.0 - - - - - - -
26/06:00pm 20.8 SSW 6 11 1009.6 - 0.0 - - - - - - -
26/05:30pm 21.3 SSW 5 9 1009.6 - 0.0 - - - - - - -
26/05:00pm 21.7 SSW 6 10 1009.8 - 0.0 - - - - - - -
26/04:30pm 20.8 SSW 7 13 1009.9 - 0.0 - - - - - - -
26/04:00pm 21.8 SSW 6 14 1009.9 - 0.0 - - - - - - -
26/03:30pm 21.8 SSW 8 13 1010.1 - 0.0 - - - - - - -
26/03:00pm 20.8 SW 9 14 1010.5 - 0.0 - - - - - - -
26/02:30pm 20.8 SSW 9 15 1010.5 - 0.0 - - - - - - -
26/02:00pm 21.3 SSW 9 16 1010.6 - 0.0 - - - - - - -
26/01:30pm 21.1 SW 10 15 1010.5 - 0.0 - - - - - - -
26/01:00pm 20.7 SSW 10 16 1010.6 - 0.0 - - - - - - -
26/12:30pm 20.1 SW 8 12 1010.7 - 0.0 - - - - - - -
26/12:00pm 20.2 SW 9 13 1010.9 - 0.0 - - - - - - -
26/11:30am 20.4 SW 7 12 1010.8 - 0.0 - - - - - - -
26/11:00am 20.4 WSW 5 10 1010.6 - 0.0 - - - - - - -
26/10:30am 19.9 W 5 10 1010.4 - 0.0 - - - - - - -
26/10:00am 19.5 W 6 9 1010.3 - 0.0 - - - - - - -
26/09:30am 20.1 W 5 8 1010.1 - 0.0 - - - - - - -
26/09:00am 18.8 W 3 7 1009.9 - 0.0 - - - - - - -
26/08:30am 18.3 W 3 5 1009.9 - 0.0 - - - - - - -
26/08:00am 18.0 WNW 1 3 1009.4 - 0.0 - - - - - - -
26/07:30am 18.0 WNW 2 4 1009.3 - 0.0 - - - - - - -
26/07:00am 17.8 NNW 4 7 1009.1 - 0.0 - - - - - - -
26/06:30am 17.7 NNW 3 5 1008.8 - 0.0 - - - - - - -
26/06:00am 18.1 NNW 4 6 1008.4 - 0.0 - - - - - - -
26/05:30am 17.6 NNE 2 4 1008.1 - 0.0 - - - - - - -
26/05:00am 17.6 NNW 2 4 1008.3 - 0.0 - - - - - - -
26/04:30am 17.2 NNW 2 3 1008.5 - 0.0 - - - - - - -
26/04:00am 16.9 NNW 3 3 1008.5 - 0.0 - - - - - - -
26/03:30am 17.2 WNW 2 3 1008.9 - 0.0 - - - - - - -
26/03:00am 17.0 NW 4 8 1008.6 - 0.0 - - - - - - -
26/02:30am 16.6 NW 2 3 1008.9 - 0.0 - - - - - - -
26/02:00am 17.1 WNW 1 3 1009.0 - 0.0 - - - - - - -
26/01:30am 17.1 W 2 3 1009.4 - 0.0 - - - - - - -
26/01:00am 17.5 WSW 2 4 1009.5 - 0.0 - - - - - - -
26/12:30am 17.6 CALM 0 0 1009.5 - 0.0 - - - - - - -
26/12:00am 17.9 ESE 1 2 1009.7 - 0.0 - - - - - - -
 
Date/Time
EDT
Temp

°C
Wind Pressure Rain
since 9am
mm
Weather Cloud Vis
km
Sea
Height
m
Swell
Dir
 
Speed
knots
Gust
knots
hPa Trend Height
m
Period
s
Dir
25/11:30pm 17.6 E 3 4 1010.0 - 0.0 - - - - - - -
25/11:00pm 18.1 E 4 5 1010.4 - 0.0 - - - - - - -
25/10:30pm 18.9 E 5 7 1010.4 - 0.0 - - - - - - -
25/10:00pm 19.6 E 7 9 1010.4 - 0.0 - - - - - - -
25/09:30pm 20.1 E 10 12 1010.2 - 0.0 - - - - - - -
25/09:00pm 20.5 E 11 13 1010.4 - 0.0 - - - - - - -
25/08:30pm 20.9 E 14 17 1010.3 - 0.0 - - - - - - -
25/08:00pm 21.6 E 14 16 1010.3 - 0.0 - - - - - - -
25/07:30pm 22.2 E 15 18 1010.6 - 0.0 - - - - - - -
25/07:00pm 22.8 E 12 16 1010.7 - 0.0 - - - - - - -
25/06:30pm 23.5 E 13 15 1010.4 - 0.0 - - - - - - -
25/06:00pm 24.4 E 11 14 1010.7 - 0.0 - - - - - - -
25/05:30pm 24.9 ENE 11 14 1010.8 - 0.0 - - - - - - -
25/05:00pm 25.0 E 12 14 1010.9 - 0.0 - - - - - - -
25/04:30pm 25.6 E 12 14 1011.4 - 0.0 - - - - - - -
25/04:00pm 26.1 E 11 14 1011.8 - 0.0 - - - - - - -
25/03:30pm 26.4 ENE 10 12 1012.2 - 0.0 - - - - - - -
25/03:00pm 26.7 ENE 10 12 1012.7 - 0.0 - - - - - - -
25/02:30pm 26.7 ENE 5 6 1013.4 - 0.0 - - - - - - -
25/02:00pm 27.7 ENE 7 9 1013.9 - 0.0 - - - - - - -
25/01:30pm 26.4 ENE 8 11 1014.3 - 0.0 - - - - - - -
25/01:00pm 25.8 ENE 10 12 1015.0 - 0.0 - - - - - - -
25/12:30pm 23.8 ENE 11 14 1015.2 - 0.0 - - - - - - -
25/12:00pm 23.4 E 14 17 1015.5 - 0.0 - - - - - - -
25/11:30am 22.5 ENE 13 16 1015.7 - 0.0 - - - - - - -
25/11:00am 21.2 E 17 23 1015.9 - 0.0 - - - - - - -
25/10:30am 20.9 ENE 18 23 1015.9 - 0.0 - - - - - - -
25/10:00am 20.7 E 20 25 1015.9 - 0.0 - - - - - - -
25/09:30am 21.2 E 20 23 1016.3 - 0.0 - - - - - - -
25/09:00am 20.5 E 18 22 1016.3 - 0.0 - - - - - - -
25/08:30am 18.9 E 18 22 1016.2 - 0.0 - - - - - - -
25/08:00am 18.1 E 13 17 1016.3 - 0.0 - - - - - - -
25/07:30am 17.0 ESE 12 15 1016.4 - 0.0 - - - - - - -
25/07:00am 16.6 ESE 13 16 1016.2 - 0.0 - - - - - - -
25/06:30am 16.6 ESE 13 18 1016.0 - 0.0 - - - - - - -
25/06:00am 17.0 SE 12 17 1015.9 - 0.0 - - - - - - -
25/05:30am 17.2 ESE 15 19 1015.9 - 0.0 - - - - - - -
25/05:00am 17.1 ESE 16 20 1015.9 - 0.0 - - - - - - -
25/04:30am 17.5 ESE 13 20 1016.0 - 0.0 - - - - - - -
25/04:00am 17.5 ESE 17 21 1016.1 - 0.0 - - - - - - -
25/03:30am 17.1 ESE 16 21 1016.3 - 0.0 - - - - - - -
25/03:00am 17.1 ESE 13 18 1016.6 - 0.0 - - - - - - -
25/02:30am 17.0 ESE 17 22 1016.8 - 0.0 - - - - - - -
25/02:00am 17.1 ESE 18 22 1017.0 - 0.0 - - - - - - -
25/01:30am 16.9 ESE 18 23 1017.3 - 0.0 - - - - - - -
25/01:00am 16.6 SE 10 17 1017.6 - 0.0 - - - - - - -
25/12:30am 16.8 ESE 11 17 1018.2 - 0.0 - - - - - - -

Other Formats:

Comma delimited format used in spreadsheet applications
http://www.bom.gov.au/fwo/IDV60701/IDV60701.94892.axf

JavaScript Object Notation format (JSON) in row-major order
http://www.bom.gov.au/fwo/IDV60701/IDV60701.94892.json